createdAt,value
2022-09-07T00:01:20.575Z,96.34
2022-09-07T00:03:49.408Z,96.96
2022-09-07T00:06:17.588Z,96.54
2022-09-07T00:08:45.894Z,97.39
2022-09-07T00:11:16.740Z,95.63
2022-09-07T00:13:47.575Z,95.64
2022-09-07T00:16:28.314Z,96.79
2022-09-07T00:18:59.459Z,97.75
2022-09-07T00:21:28.502Z,96.82
2022-09-07T00:23:57.073Z,96.99
2022-09-07T00:26:30.596Z,96.43
2022-09-07T00:29:01.095Z,95.86
2022-09-07T00:31:31.104Z,95.56
2022-09-07T00:34:01.770Z,93.78
2022-09-07T00:36:30.349Z,93.60
2022-09-07T00:38:58.557Z,93.26
2022-09-07T00:41:28.366Z,94.57
2022-09-07T00:43:58.798Z,96.78
2022-09-07T00:46:38.670Z,95.52
2022-09-07T00:49:12.802Z,95.05
2022-09-07T00:51:48.697Z,94.69
2022-09-07T00:54:22.137Z,95.06
2022-09-07T00:56:52.957Z,96.27
2022-09-07T00:59:26.463Z,96.56
2022-09-07T01:01:55.296Z,98.12
2022-09-07T01:04:24.209Z,98.77
2022-09-07T01:06:55.582Z,98.29
2022-09-07T01:09:27.472Z,98.14
2022-09-07T01:11:59.976Z,98.73
2022-09-07T01:14:35.536Z,99.03
2022-09-07T01:17:06.868Z,98.04
2022-09-07T01:20:03.854Z,97.87
2022-09-07T01:22:58.180Z,96.24
2022-09-07T01:25:48.596Z,96.79
2022-09-07T01:28:23.115Z,97.79
2022-09-07T01:30:59.155Z,96.87
2022-09-07T01:33:34.558Z,97.31
2022-09-07T01:36:18.331Z,96.98
2022-09-07T01:38:55.150Z,96.98
2022-09-07T01:41:54.670Z,96.76
2022-09-07T01:44:25.430Z,96.87
2022-09-07T01:47:08.022Z,98.24
2022-09-07T01:49:36.373Z,98.70
2022-09-07T01:52:22.970Z,97.45
2022-09-07T01:54:59.688Z,96.59
2022-09-07T01:57:42.751Z,97.51
2022-09-07T02:00:14.535Z,97.24
2022-09-07T02:02:57.821Z,96.64
2022-09-07T02:05:35.770Z,95.56
2022-09-07T02:08:15.035Z,95.30
2022-09-07T02:11:00.203Z,95.91
2022-09-07T02:13:44.675Z,97.35
2022-09-07T02:16:24.001Z,96.22
2022-09-07T02:18:57.271Z,95.82
2022-09-07T02:21:40.589Z,95.29
2022-09-07T02:24:18.311Z,94.58
2022-09-07T02:26:50.880Z,96.92
2022-09-07T02:29:19.432Z,97.68
2022-09-07T02:31:48.546Z,97.71
2022-09-07T02:34:16.858Z,97.49
2022-09-07T02:36:48.917Z,97.72
2022-09-07T02:39:18.003Z,96.95
2022-09-07T02:41:46.910Z,97.21
2022-09-07T02:44:26.268Z,96.83
2022-09-07T02:47:24.735Z,98.17
2022-09-07T02:49:57.318Z,96.97
2022-09-07T02:52:42.030Z,96.47
2022-09-07T02:55:37.355Z,95.65
2022-09-07T02:58:35.591Z,94.67
2022-09-07T03:01:13.272Z,95.09
2022-09-07T03:03:46.012Z,95.50
2022-09-07T03:06:24.222Z,97.33
2022-09-07T03:08:58.244Z,99.05
2022-09-07T03:11:26.962Z,99.06
2022-09-07T03:14:17.392Z,98.34
2022-09-07T03:16:48.280Z,97.25
2022-09-07T03:19:17.057Z,98.14
2022-09-07T03:21:45.271Z,99.85
2022-09-07T03:24:13.510Z,99.53
2022-09-07T03:26:45.829Z,98.16
2022-09-07T03:29:15.008Z,96.87
2022-09-07T03:31:43.662Z,97.62
2022-09-07T03:34:12.005Z,99.51
2022-09-07T03:36:40.877Z,100.00
2022-09-07T03:39:12.297Z,99.58
2022-09-07T03:41:40.507Z,98.45
2022-09-07T03:44:09.079Z,98.85
2022-09-07T03:46:37.713Z,97.68
2022-09-07T03:49:05.855Z,96.62
2022-09-07T03:51:34.441Z,96.85
2022-09-07T03:54:03.148Z,96.53
2022-09-07T03:56:31.490Z,96.59
2022-09-07T03:58:59.989Z,96.68
2022-09-07T04:01:28.724Z,96.64
2022-09-07T04:04:02.193Z,97.66
2022-09-07T04:06:31.743Z,98.61
2022-09-07T04:09:06.166Z,98.81
2022-09-07T04:11:35.366Z,99.53
2022-09-07T04:14:04.067Z,99.66
2022-09-07T04:16:32.446Z,99.32
2022-09-07T04:19:01.843Z,99.94
2022-09-07T04:21:32.366Z,99.26
2022-09-07T04:24:00.705Z,99.60
2022-09-07T04:26:32.502Z,99.35
2022-09-07T04:29:01.631Z,98.94
2022-09-07T04:31:30.305Z,97.90
2022-09-07T04:33:58.670Z,97.39
2022-09-07T04:36:27.297Z,97.67
2022-09-07T04:38:57.927Z,97.77
2022-09-07T04:41:28.430Z,96.64
2022-09-07T04:43:59.041Z,95.13
2022-09-07T04:46:35.969Z,94.79
2022-09-07T04:49:07.048Z,95.15
2022-09-07T04:51:37.927Z,94.79
2022-09-07T04:54:07.095Z,95.21
2022-09-07T04:56:35.587Z,96.33
2022-09-07T04:59:04.761Z,96.00
2022-09-07T05:01:35.592Z,97.11
2022-09-07T05:04:04.334Z,95.75
2022-09-07T05:06:32.930Z,96.89
2022-09-07T05:09:04.089Z,96.78
2022-09-07T05:11:32.954Z,96.05
2022-09-07T05:14:03.379Z,95.74
2022-09-07T05:16:32.211Z,97.09
2022-09-07T05:19:03.847Z,95.64
2022-09-07T05:21:36.418Z,95.97
2022-09-07T05:24:06.831Z,96.08
2022-09-07T05:26:36.929Z,95.04
2022-09-07T05:31:55.012Z,93.08
2022-09-07T05:34:32.231Z,94.20
2022-09-07T05:37:01.773Z,93.48
2022-09-07T05:39:30.941Z,93.84
2022-09-07T05:41:59.101Z,93.79
2022-09-07T05:47:11.679Z,93.44
2022-09-07T05:49:40.279Z,91.01
2022-09-07T05:52:08.912Z,91.84
2022-09-07T05:54:37.386Z,87.70
2022-09-07T05:57:07.524Z,89.19
2022-09-07T05:59:35.773Z,86.66
2022-09-07T06:02:05.677Z,85.57
2022-09-07T06:04:34.442Z,84.79
2022-09-07T06:07:21.049Z,86.08
2022-09-07T06:12:39.281Z,84.44
2022-09-07T06:15:08.438Z,84.13
2022-09-07T06:17:39.276Z,84.01
2022-09-07T06:20:08.516Z,83.00
2022-09-07T06:22:38.206Z,82.16
2022-09-07T06:25:06.640Z,81.96
2022-09-07T06:27:35.170Z,83.07
2022-09-07T06:30:04.839Z,81.90
2022-09-07T06:35:09.317Z,80.95
2022-09-07T06:37:38.211Z,80.64
2022-09-07T06:40:07.746Z,81.01
2022-09-07T06:42:37.303Z,80.30
2022-09-07T06:45:11.545Z,78.34
2022-09-07T06:47:41.301Z,77.51
2022-09-07T06:50:09.898Z,77.75
2022-09-07T06:55:28.269Z,76.14
2022-09-07T06:57:56.710Z,75.00
2022-09-07T07:00:25.028Z,77.07
2022-09-07T07:02:53.843Z,75.34
2022-09-07T07:05:22.000Z,76.71
2022-09-07T07:07:50.659Z,74.19
2022-09-07T07:10:24.237Z,74.82
2022-09-07T07:12:57.669Z,73.36
2022-09-07T07:15:28.787Z,74.90
2022-09-07T07:18:02.673Z,72.16
2022-09-07T07:20:36.794Z,70.66
2022-09-07T07:23:05.634Z,71.86
2022-09-07T07:25:35.896Z,71.40
2022-09-07T07:30:57.939Z,67.78
2022-09-07T07:33:31.616Z,70.22
2022-09-07T07:36:27.339Z,68.26
2022-09-07T07:44:20.834Z,67.37
2022-09-07T07:46:51.104Z,65.53
2022-09-07T07:49:19.866Z,66.19
2022-09-07T07:54:37.099Z,63.11
2022-09-07T07:57:06.266Z,62.26
2022-09-07T07:59:35.390Z,59.78
2022-09-07T08:02:06.159Z,62.07
2022-09-07T08:04:35.323Z,61.45
2022-09-07T08:07:09.626Z,60.53
2022-09-07T08:09:43.767Z,61.08
2022-09-07T08:12:15.000Z,57.70
2022-09-07T08:14:43.897Z,58.59
2022-09-07T08:17:14.885Z,56.50
2022-09-07T08:19:44.964Z,56.74
2022-09-07T08:22:13.343Z,57.12
2022-09-07T08:24:41.480Z,52.78
2022-09-07T08:27:09.896Z,55.60
2022-09-07T08:29:38.051Z,54.38
2022-09-07T08:32:06.857Z,59.26
2022-09-07T08:34:36.697Z,55.71
2022-09-07T08:37:05.393Z,56.17
2022-09-07T08:39:33.764Z,57.31
2022-09-07T08:42:22.355Z,52.84
2022-09-07T08:45:18.115Z,52.76
2022-09-07T08:47:50.510Z,50.55
2022-09-07T08:50:42.006Z,51.77
2022-09-07T08:53:18.848Z,50.28
2022-09-07T08:55:49.883Z,51.34
2022-09-07T08:58:54.541Z,48.89
2022-09-07T09:01:33.235Z,50.98
2022-09-07T09:04:18.795Z,47.96
2022-09-07T09:06:59.838Z,50.35
2022-09-07T09:10:07.282Z,49.57
2022-09-07T09:12:58.184Z,48.97
2022-09-07T09:15:47.695Z,48.29
2022-09-07T09:18:31.892Z,48.00
2022-09-07T09:21:01.156Z,47.59
2022-09-07T09:23:41.017Z,48.34
2022-09-07T09:26:24.416Z,47.59
2022-09-07T09:28:52.615Z,48.95
2022-09-07T09:31:24.344Z,47.22
2022-09-07T09:34:07.914Z,47.27
2022-09-07T09:36:45.300Z,46.97
2022-09-07T09:39:29.116Z,46.26
2022-09-07T09:42:15.563Z,46.92
2022-09-07T09:44:44.709Z,48.93
2022-09-07T09:47:39.783Z,48.89
2022-09-07T09:52:29.012Z,48.35
2022-09-07T09:53:07.047Z,48.87
2022-09-07T09:55:37.621Z,47.62
2022-09-07T10:01:24.066Z,47.00
2022-09-07T10:06:22.423Z,46.36
2022-09-07T10:09:02.274Z,45.86
2022-09-07T10:14:46.696Z,46.97
2022-09-07T10:17:27.876Z,47.29
2022-09-07T10:20:02.253Z,48.99
2022-09-07T10:22:37.536Z,46.20
2022-09-07T10:25:33.773Z,47.44
2022-09-07T10:28:14.452Z,46.25
2022-09-07T10:31:01.936Z,45.55
2022-09-07T10:37:05.642Z,46.74
2022-09-07T10:39:46.715Z,49.71
2022-09-07T10:42:25.470Z,45.56
2022-09-07T10:45:46.327Z,46.11
2022-09-07T10:48:29.067Z,48.43
2022-09-07T10:51:12.543Z,44.61
2022-09-07T10:57:04.654Z,44.76
2022-09-07T11:00:08.578Z,45.27
2022-09-07T11:06:07.513Z,47.49
2022-09-07T11:09:15.760Z,47.21
2022-09-07T11:14:36.843Z,45.38
2022-09-07T11:17:20.796Z,47.00
2022-09-07T11:20:01.530Z,46.14
2022-09-07T11:22:38.992Z,46.81
2022-09-07T11:25:49.686Z,46.45
2022-09-07T11:28:42.851Z,46.21
2022-09-07T11:31:37.995Z,49.40
2022-09-07T11:34:24.631Z,47.24
2022-09-07T11:37:06.151Z,49.31
2022-09-07T11:39:48.755Z,47.77
2022-09-07T11:42:46.612Z,47.91
2022-09-07T11:45:28.520Z,46.29
2022-09-07T11:48:19.591Z,47.02
2022-09-07T11:50:55.432Z,48.43
2022-09-07T11:53:36.526Z,48.02
2022-09-07T11:56:13.544Z,49.49
2022-09-07T11:58:57.319Z,47.57
2022-09-07T12:01:38.420Z,46.72
2022-09-07T12:04:44.700Z,49.90
2022-09-07T12:07:52.526Z,49.33
2022-09-07T12:10:47.591Z,49.16
2022-09-07T12:13:37.152Z,49.04
2022-09-07T12:16:34.312Z,48.81
2022-09-07T12:19:26.839Z,47.99
2022-09-07T12:22:02.128Z,49.34
2022-09-07T12:24:41.255Z,47.74
2022-09-07T12:27:21.678Z,47.59
2022-09-07T12:29:52.823Z,47.12
2022-09-07T12:32:57.498Z,47.06
2022-09-07T12:35:26.912Z,49.33
2022-09-07T12:37:59.697Z,45.91
2022-09-07T12:40:28.078Z,48.25
2022-09-07T12:43:14.960Z,47.07
2022-09-07T12:45:50.725Z,46.36
2022-09-07T12:48:19.093Z,46.28
2022-09-07T12:51:02.230Z,48.12
2022-09-07T12:53:57.603Z,49.48
2022-09-07T12:57:29.109Z,49.77
2022-09-07T12:59:55.131Z,49.23
2022-09-07T13:03:00.944Z,47.53
2022-09-07T13:05:44.993Z,47.03
2022-09-07T13:08:16.162Z,47.79
2022-09-07T13:10:47.124Z,48.16
2022-09-07T13:13:15.552Z,47.66
2022-09-07T13:15:45.863Z,47.85
2022-09-07T13:18:29.519Z,48.94
2022-09-07T13:21:06.869Z,49.82
2022-09-07T13:23:39.701Z,46.85
2022-09-07T13:26:12.256Z,46.97
2022-09-07T13:28:56.159Z,47.14
2022-09-07T13:31:52.958Z,45.35
2022-09-07T13:34:34.370Z,46.11
2022-09-07T13:37:05.257Z,44.78
2022-09-07T13:39:44.724Z,46.43
2022-09-07T13:42:22.606Z,46.79
2022-09-07T13:44:53.210Z,45.72
2022-09-07T13:47:39.070Z,46.21
2022-09-07T13:50:59.093Z,47.23
2022-09-07T13:53:45.502Z,46.52
2022-09-07T13:56:24.367Z,47.97
2022-09-07T13:58:53.640Z,47.90
2022-09-07T14:01:26.987Z,48.52
2022-09-07T14:04:06.839Z,47.09
2022-09-07T14:06:37.667Z,47.85
2022-09-07T14:09:14.944Z,45.70
2022-09-07T14:11:49.114Z,47.24
2022-09-07T14:14:21.955Z,46.69
2022-09-07T14:17:06.152Z,46.34
2022-09-07T14:19:47.954Z,46.64
2022-09-07T14:22:19.725Z,45.93
2022-09-07T14:24:51.610Z,45.60
2022-09-07T14:27:25.678Z,47.09
2022-09-07T14:29:54.125Z,46.52
2022-09-07T14:32:27.093Z,47.69
2022-09-07T14:34:56.195Z,47.44
2022-09-07T14:37:24.589Z,48.17
2022-09-07T14:39:53.340Z,48.54
2022-09-07T14:42:24.098Z,47.39
2022-09-07T14:45:18.363Z,48.19
2022-09-07T14:47:51.966Z,46.41
2022-09-07T14:50:23.759Z,49.04
2022-09-07T14:55:45.988Z,49.62
2022-09-07T14:58:14.584Z,47.35
2022-09-07T15:01:37.255Z,46.62
2022-09-07T15:03:39.382Z,46.26
2022-09-07T15:07:00.522Z,45.84
2022-09-07T15:08:59.015Z,47.51
2022-09-07T15:11:33.389Z,47.54
2022-09-07T15:14:08.939Z,48.99
2022-09-07T15:16:43.902Z,46.81
2022-09-07T15:19:15.539Z,47.65
2022-09-07T15:21:45.194Z,46.92
2022-09-07T15:24:13.782Z,47.11
2022-09-07T15:27:05.209Z,46.63
2022-09-07T15:29:33.661Z,46.18
2022-09-07T15:32:04.721Z,46.64
2022-09-07T15:34:34.723Z,47.02
2022-09-07T15:37:04.199Z,47.43
2022-09-07T15:39:53.039Z,48.15
2022-09-07T15:45:11.203Z,47.16
2022-09-07T15:47:47.195Z,47.59
2022-09-07T15:50:16.757Z,47.67
2022-09-07T15:52:46.510Z,48.12
2022-09-07T15:55:17.624Z,48.34
2022-09-07T15:57:54.577Z,49.53
2022-09-07T16:00:27.782Z,49.25
2022-09-07T16:03:12.190Z,49.59
2022-09-07T16:05:44.041Z,50.07
2022-09-07T16:11:18.428Z,50.96
2022-09-07T16:13:48.125Z,51.03
2022-09-07T16:16:16.509Z,53.88
2022-09-07T16:18:46.668Z,54.22
2022-09-07T16:21:16.700Z,54.76
2022-09-07T16:23:50.087Z,56.35
2022-09-07T16:26:21.365Z,57.48
2022-09-07T16:28:51.266Z,58.27
2022-09-07T16:31:22.857Z,57.08
2022-09-07T16:33:51.731Z,58.36
2022-09-07T16:36:23.730Z,58.16
2022-09-07T16:38:56.957Z,58.94
2022-09-07T16:41:29.213Z,59.81
2022-09-07T16:43:58.456Z,60.23
2022-09-07T16:46:30.804Z,60.17
2022-09-07T16:48:59.063Z,60.76
2022-09-07T16:51:28.722Z,62.02
2022-09-07T16:53:58.887Z,61.89
2022-09-07T16:56:29.063Z,62.40
2022-09-07T16:59:00.510Z,62.96
2022-09-07T17:01:34.636Z,62.79
2022-09-07T17:04:09.905Z,64.22
2022-09-07T17:06:40.532Z,63.68
2022-09-07T17:09:10.615Z,64.73
2022-09-07T17:11:38.940Z,63.90
2022-09-07T17:14:07.166Z,63.05
2022-09-07T17:16:38.296Z,62.85
2022-09-07T17:22:00.594Z,63.01
2022-09-07T17:24:32.235Z,62.69
2022-09-07T17:27:01.827Z,63.89
2022-09-07T17:29:33.836Z,64.49
2022-09-07T17:34:51.653Z,66.32
2022-09-07T17:37:20.266Z,66.19
2022-09-07T17:39:48.855Z,65.27
2022-09-07T17:42:17.124Z,64.93
2022-09-07T17:44:45.701Z,65.65
2022-09-07T17:47:13.991Z,64.88
2022-09-07T17:49:42.336Z,65.61
2022-09-07T17:52:10.829Z,65.63
2022-09-07T17:54:39.718Z,64.29
2022-09-07T17:57:07.817Z,64.44
2022-09-07T18:02:24.642Z,64.85
2022-09-07T18:04:53.326Z,64.64
2022-09-07T18:07:21.777Z,64.15
2022-09-07T18:09:49.917Z,64.42
2022-09-07T18:12:18.851Z,64.33
2022-09-07T18:14:47.293Z,64.76
2022-09-07T18:17:15.446Z,64.99
2022-09-07T18:19:44.097Z,66.14
2022-09-07T18:22:12.332Z,67.69
2022-09-07T18:24:40.552Z,67.90
2022-09-07T18:27:10.002Z,68.79
2022-09-07T18:29:38.381Z,69.71
2022-09-07T18:32:08.946Z,67.68
2022-09-07T18:34:41.126Z,68.14
2022-09-07T18:37:12.539Z,67.83
2022-09-07T18:39:41.685Z,67.93
2022-09-07T18:42:10.171Z,68.46
2022-09-07T18:47:29.508Z,68.55
2022-09-07T18:49:58.751Z,69.47
2022-09-07T18:57:45.254Z,70.50
2022-09-07T19:00:14.359Z,70.23
2022-09-07T19:02:43.781Z,69.96
2022-09-07T19:08:03.594Z,71.13
2022-09-07T19:10:36.645Z,71.46
2022-09-07T19:13:05.752Z,71.17
2022-09-07T19:15:37.382Z,71.00
2022-09-07T19:18:08.126Z,70.88
2022-09-07T19:20:36.659Z,70.98
2022-09-07T19:23:05.568Z,71.44
2022-09-07T19:25:34.392Z,71.67
2022-09-07T19:28:02.619Z,71.91
2022-09-07T19:30:31.220Z,71.62
2022-09-07T19:33:04.149Z,71.77
2022-09-07T19:35:35.765Z,72.06
2022-09-07T19:38:04.527Z,73.40
2022-09-07T19:40:32.760Z,73.55
2022-09-07T19:43:00.838Z,73.71
2022-09-07T19:45:29.503Z,72.32
2022-09-07T19:47:58.064Z,73.21
2022-09-07T19:50:26.203Z,72.62
2022-09-07T19:52:55.252Z,72.79
2022-09-07T19:55:23.399Z,72.82
2022-09-07T19:57:52.437Z,72.85
2022-09-07T20:00:21.068Z,73.58
2022-09-07T20:02:50.301Z,73.33
2022-09-07T20:05:18.866Z,73.96
2022-09-07T20:07:47.245Z,72.20
2022-09-07T20:10:16.103Z,72.18
2022-09-07T20:12:44.202Z,72.41
2022-09-07T20:15:12.701Z,72.30
2022-09-07T20:17:41.355Z,72.60
2022-09-07T20:20:09.848Z,72.44
2022-09-07T20:22:39.130Z,73.51
2022-09-07T20:25:13.255Z,73.38
2022-09-07T20:27:41.965Z,72.64
2022-09-07T20:30:12.003Z,73.23
2022-09-07T20:32:41.219Z,74.15
2022-09-07T20:35:10.064Z,74.85
2022-09-07T20:37:38.669Z,74.15
2022-09-07T20:40:07.965Z,75.84
2022-09-07T20:42:36.404Z,76.44
2022-09-07T20:45:05.201Z,76.30
2022-09-07T20:47:33.998Z,75.90
2022-09-07T20:50:02.899Z,74.97
2022-09-07T20:52:31.362Z,76.01
2022-09-07T20:54:59.621Z,75.10
2022-09-07T20:57:28.260Z,74.10
2022-09-07T20:59:56.743Z,74.56
2022-09-07T21:02:24.919Z,74.87
2022-09-07T21:04:53.088Z,75.40
2022-09-07T21:07:21.451Z,75.73
2022-09-07T21:09:49.906Z,76.48
2022-09-07T21:12:18.188Z,76.65
2022-09-07T21:14:46.878Z,76.97
2022-09-07T21:17:15.077Z,76.96
2022-09-07T21:19:43.510Z,76.47
2022-09-07T21:22:12.010Z,76.69
2022-09-07T21:24:40.105Z,76.35
2022-09-07T21:27:08.455Z,76.09
2022-09-07T21:29:36.810Z,76.02
2022-09-07T21:32:05.003Z,76.92
2022-09-07T21:34:33.906Z,77.55
2022-09-07T21:37:02.361Z,77.57
2022-09-07T21:39:30.461Z,77.34
2022-09-07T21:41:58.942Z,77.34
2022-09-07T21:44:27.357Z,76.96
2022-09-07T21:46:55.791Z,77.24
2022-09-07T21:49:24.283Z,77.63
2022-09-07T21:51:52.872Z,78.34
2022-09-07T21:54:21.077Z,78.45
2022-09-07T21:56:49.525Z,78.42
2022-09-07T21:59:17.921Z,78.55
2022-09-07T22:01:46.062Z,78.84
2022-09-07T22:04:14.948Z,78.26
2022-09-07T22:06:43.992Z,78.40
2022-09-07T22:09:12.387Z,78.54
2022-09-07T22:11:45.730Z,78.94
2022-09-07T22:14:15.889Z,79.98
2022-09-07T22:16:44.998Z,80.11
2022-09-07T22:19:13.124Z,80.07
2022-09-07T22:21:41.253Z,79.79
2022-09-07T22:24:12.621Z,79.50
2022-09-07T22:26:41.260Z,79.82
2022-09-07T22:29:12.343Z,79.16
2022-09-07T22:31:41.567Z,79.32
2022-09-07T22:34:10.930Z,79.13
2022-09-07T22:36:43.875Z,80.39
2022-09-07T22:39:15.105Z,79.35
2022-09-07T22:41:44.832Z,80.22
2022-09-07T22:44:15.538Z,79.83
2022-09-07T22:46:45.724Z,79.95
2022-09-07T22:49:16.131Z,80.21
2022-09-07T22:51:44.726Z,79.61
2022-09-07T22:54:13.868Z,80.29
2022-09-07T22:56:42.422Z,80.44
2022-09-07T22:59:12.084Z,80.91
2022-09-07T23:01:40.931Z,80.43
2022-09-07T23:04:10.541Z,80.46
2022-09-07T23:06:42.086Z,80.84
2022-09-07T23:09:16.277Z,81.13
2022-09-07T23:11:46.445Z,80.84
2022-09-07T23:14:21.886Z,81.05
2022-09-07T23:16:51.080Z,82.28
2022-09-07T23:19:20.490Z,81.71
2022-09-07T23:21:48.574Z,81.18
2022-09-07T23:24:19.049Z,81.44
2022-09-07T23:26:47.608Z,81.86
2022-09-07T23:29:16.562Z,83.04
2022-09-07T23:31:46.828Z,81.68
2022-09-07T23:34:15.688Z,81.39
2022-09-07T23:36:43.736Z,81.09
2022-09-07T23:39:12.568Z,81.68
2022-09-07T23:41:40.927Z,82.28
2022-09-07T23:44:08.963Z,82.48
2022-09-07T23:46:37.341Z,81.98
2022-09-07T23:49:05.773Z,83.24
2022-09-07T23:51:33.809Z,82.73
2022-09-07T23:54:02.505Z,83.17
2022-09-07T23:56:32.671Z,83.21
2022-09-07T23:59:00.809Z,83.02
